createdAt,value
2022-12-18T05:04:43.849Z,-9.39
2022-12-18T05:08:55.372Z,-9.37
2022-12-18T05:13:06.873Z,-9.48
2022-12-18T05:17:18.476Z,-9.40
2022-12-18T05:21:31.195Z,-9.29
2022-12-18T05:25:42.688Z,-9.28
2022-12-18T05:29:54.144Z,-9.38
2022-12-18T05:34:06.086Z,-9.46
2022-12-18T05:38:17.573Z,-9.41
2022-12-18T05:42:29.132Z,-9.39
2022-12-18T05:46:40.710Z,-9.34
2022-12-18T05:50:52.392Z,-9.39
2022-12-18T05:55:04.119Z,-9.44
2022-12-18T05:59:15.593Z,-9.57
2022-12-18T06:03:33.567Z,-9.67
2022-12-18T06:07:45.408Z,-9.68
2022-12-18T06:11:57.001Z,-9.57
2022-12-18T06:16:09.177Z,-9.45
2022-12-18T06:20:21.092Z,-9.34
2022-12-18T06:24:32.519Z,-9.33
2022-12-18T06:28:44.047Z,-9.34
2022-12-18T06:32:56.866Z,-9.44
2022-12-18T06:37:08.608Z,-9.53
2022-12-18T06:41:21.837Z,-9.54
2022-12-18T06:45:33.424Z,-9.58
2022-12-18T06:49:45.023Z,-9.66
2022-12-18T06:53:56.553Z,-9.59
2022-12-18T06:58:08.017Z,-9.65
2022-12-18T07:02:19.892Z,-9.64
2022-12-18T07:06:31.948Z,-9.47
2022-12-18T07:10:46.982Z,-9.37
2022-12-18T07:14:59.740Z,-9.12
2022-12-18T07:19:11.262Z,-9.13
2022-12-18T07:23:22.761Z,-9.14
2022-12-18T07:27:34.196Z,-9.13
2022-12-18T07:31:46.892Z,-9.19
2022-12-18T07:36:00.604Z,-9.22
2022-12-18T07:40:13.300Z,-9.34
2022-12-18T07:44:25.137Z,-9.40
2022-12-18T07:48:36.816Z,-9.22
2022-12-18T07:52:48.620Z,-9.35
2022-12-18T07:57:00.616Z,-9.18
2022-12-18T08:01:12.986Z,-9.15
2022-12-18T08:05:24.748Z,-9.11
2022-12-18T08:09:36.205Z,-8.91
2022-12-18T08:13:47.669Z,-9.14
2022-12-18T08:17:59.252Z,-9.29
2022-12-18T08:22:10.753Z,-9.39
2022-12-18T08:26:23.053Z,-9.24
2022-12-18T08:30:34.595Z,-9.21
2022-12-18T08:34:46.065Z,-9.55
2022-12-18T08:38:58.171Z,-9.67
2022-12-18T08:43:29.943Z,-9.50
2022-12-18T08:47:41.408Z,-9.30
2022-12-18T08:51:55.728Z,-9.28
2022-12-18T08:56:07.482Z,-9.11
2022-12-18T09:00:19.122Z,-8.97
2022-12-18T09:04:30.615Z,-8.84
2022-12-18T09:08:43.056Z,-8.70
2022-12-18T09:12:55.007Z,-8.55
2022-12-18T09:17:06.642Z,-8.40
2022-12-18T09:21:22.201Z,-8.25
2022-12-18T09:25:36.611Z,-8.22
2022-12-18T09:29:48.156Z,-8.03
2022-12-18T09:33:59.694Z,-7.93
2022-12-18T09:38:16.447Z,-7.70
2022-12-18T09:42:28.259Z,-7.54
2022-12-18T09:47:16.166Z,-7.21
2022-12-18T09:51:47.719Z,-6.86
2022-12-18T09:56:50.575Z,-6.72
2022-12-18T10:01:15.632Z,-6.58
2022-12-18T10:06:17.793Z,-6.48
2022-12-18T10:10:49.086Z,-6.29
2022-12-18T10:15:35.044Z,-6.24
2022-12-18T10:19:53.974Z,-6.28
2022-12-18T10:24:28.810Z,-6.18
2022-12-18T10:28:42.640Z,-6.17
2022-12-18T10:32:55.235Z,-6.06
2022-12-18T10:37:13.838Z,-6.16
2022-12-18T10:41:27.716Z,-6.10
2022-12-18T10:45:42.631Z,-6.05
2022-12-18T10:49:56.390Z,-6.23
2022-12-18T10:54:15.164Z,-6.16
2022-12-18T10:58:30.258Z,-5.93
2022-12-18T11:02:45.132Z,-5.78
2022-12-18T11:07:11.187Z,-5.65
2022-12-18T11:11:47.705Z,-5.69
2022-12-18T11:16:03.012Z,-5.50
2022-12-18T11:20:38.692Z,-5.39
2022-12-18T11:29:46.755Z,-5.22
2022-12-18T11:51:00.487Z,-5.25
2022-12-18T12:02:43.410Z,-5.15
2022-12-18T12:13:27.400Z,-4.90
2022-12-18T12:17:49.351Z,-4.86
2022-12-18T12:22:16.179Z,-4.89
2022-12-18T12:26:30.636Z,-4.86
2022-12-18T12:31:01.996Z,-4.79
2022-12-18T12:35:37.783Z,-4.72
2022-12-18T12:39:49.478Z,-4.65
2022-12-18T12:44:08.008Z,-4.52
2022-12-18T12:48:49.531Z,-4.43
2022-12-18T12:53:08.323Z,-4.50
2022-12-18T12:57:33.345Z,-4.41
2022-12-18T13:02:05.740Z,-4.27
2022-12-18T13:06:44.907Z,-4.24
2022-12-18T13:11:19.875Z,-4.25
2022-12-18T13:15:39.957Z,-4.14
2022-12-18T13:19:53.689Z,-4.06
2022-12-18T13:24:27.603Z,-3.96
2022-12-18T13:28:51.023Z,-3.90
2022-12-18T13:33:14.669Z,-3.89
2022-12-18T13:37:32.401Z,-3.74
2022-12-18T13:41:45.614Z,-3.82
2022-12-18T13:46:04.657Z,-3.83
2022-12-18T13:50:26.353Z,-3.77
2022-12-18T13:54:42.561Z,-3.79
2022-12-18T13:59:16.453Z,-3.87
2022-12-18T14:03:29.744Z,-3.80
2022-12-18T14:07:44.977Z,-3.76
2022-12-18T14:12:19.315Z,-3.77
2022-12-18T14:16:31.314Z,-3.86
2022-12-18T14:20:52.159Z,-3.83
2022-12-18T14:25:13.454Z,-3.74
2022-12-18T14:29:30.387Z,-3.73
2022-12-18T14:33:42.233Z,-3.75
2022-12-18T14:37:53.946Z,-3.79
2022-12-18T14:42:05.465Z,-3.83
2022-12-18T14:46:28.371Z,-3.80
2022-12-18T14:50:40.598Z,-3.83
2022-12-18T14:54:53.473Z,-3.89
2022-12-18T14:59:24.837Z,-3.83
2022-12-18T15:03:36.764Z,-3.86
2022-12-18T15:07:51.546Z,-3.85
2022-12-18T15:12:03.782Z,-3.88
2022-12-18T15:16:15.416Z,-3.91
2022-12-18T15:20:27.529Z,-3.92
2022-12-18T15:24:39.046Z,-3.98
2022-12-18T15:28:51.886Z,-3.97
2022-12-18T15:33:26.111Z,-3.97
2022-12-18T15:37:38.723Z,-4.01
2022-12-18T15:42:10.603Z,-4.11
2022-12-18T15:46:27.302Z,-4.06
2022-12-18T15:50:39.076Z,-4.01
2022-12-18T15:55:09.018Z,-4.02
2022-12-18T15:59:21.648Z,-4.05
2022-12-18T16:03:33.261Z,-4.10
2022-12-18T16:07:45.941Z,-4.26
2022-12-18T16:11:57.433Z,-4.19
2022-12-18T16:16:09.636Z,-4.17
2022-12-18T16:20:22.929Z,-4.16
2022-12-18T16:24:37.046Z,-4.14
2022-12-18T16:28:48.692Z,-4.15
2022-12-18T16:33:00.610Z,-4.17
2022-12-18T16:37:14.427Z,-4.24
2022-12-18T16:41:31.907Z,-4.27
2022-12-18T16:45:43.322Z,-4.27
2022-12-18T16:49:54.874Z,-4.29
2022-12-18T16:54:10.323Z,-4.40
2022-12-18T16:58:24.216Z,-4.30
2022-12-18T17:02:35.982Z,-4.30
2022-12-18T17:06:51.718Z,-4.40
2022-12-18T17:11:07.854Z,-4.43
2022-12-18T17:15:19.314Z,-4.48
2022-12-18T17:19:31.538Z,-4.54
2022-12-18T17:23:44.235Z,-4.56
2022-12-18T17:27:55.751Z,-4.59
2022-12-18T17:32:07.174Z,-4.55
2022-12-18T17:36:18.861Z,-4.48
2022-12-18T17:40:33.228Z,-4.42
2022-12-18T17:44:45.741Z,-4.37
2022-12-18T17:48:58.398Z,-4.38
2022-12-18T17:53:09.860Z,-4.35
2022-12-18T17:57:22.350Z,-4.32
2022-12-18T18:01:40.940Z,-4.25
2022-12-18T18:05:57.093Z,-4.21
2022-12-18T18:10:09.340Z,-4.14
2022-12-18T18:14:21.281Z,-4.12
2022-12-18T18:18:33.020Z,-4.04
2022-12-18T18:22:44.647Z,-4.19
2022-12-18T18:26:56.402Z,-4.19
2022-12-18T18:31:10.380Z,-4.18
2022-12-18T18:35:52.411Z,-4.14
2022-12-18T18:39:53.442Z,-4.05
2022-12-18T18:44:05.121Z,-4.15
2022-12-18T18:48:16.561Z,-4.12
2022-12-18T18:52:28.053Z,-4.10
2022-12-18T18:57:40.100Z,-4.03
2022-12-18T19:01:14.531Z,-4.05
2022-12-18T19:05:26.051Z,-4.14
2022-12-18T19:09:37.590Z,-4.06
2022-12-18T19:13:49.038Z,-4.08
2022-12-18T19:18:00.637Z,-4.13
2022-12-18T19:22:12.510Z,-4.04
2022-12-18T19:26:27.873Z,-4.04
2022-12-18T19:30:40.188Z,-4.16
2022-12-18T19:34:53.754Z,-4.13
2022-12-18T19:39:14.412Z,-4.18
2022-12-18T19:43:27.015Z,-4.11
2022-12-18T19:47:38.537Z,-4.09
2022-12-18T19:51:50.548Z,-4.09
2022-12-18T19:56:07.517Z,-4.01
2022-12-18T20:00:19.162Z,-4.03
2022-12-18T20:04:31.952Z,-3.97
2022-12-18T20:08:43.508Z,-3.97
2022-12-18T20:12:55.038Z,-4.07
2022-12-18T20:17:08.072Z,-4.04
2022-12-18T20:21:21.032Z,-4.16
2022-12-18T20:25:32.611Z,-4.11
2022-12-18T20:29:44.277Z,-4.04
2022-12-18T20:34:00.232Z,-4.06
2022-12-18T20:38:13.487Z,-4.06
2022-12-18T20:42:25.108Z,-4.05
2022-12-18T20:46:36.606Z,-4.09
2022-12-18T20:50:58.195Z,-3.98
2022-12-18T20:55:11.751Z,-3.96
2022-12-18T20:59:25.486Z,-3.90
2022-12-18T21:03:38.275Z,-3.93
2022-12-18T21:07:50.008Z,-3.89
2022-12-18T21:12:20.120Z,-3.82
2022-12-18T21:16:31.833Z,-3.82
2022-12-18T21:20:52.465Z,-3.79
2022-12-18T21:25:08.254Z,-3.79
2022-12-18T21:29:25.725Z,-3.81
2022-12-18T21:33:42.261Z,-3.77
2022-12-18T21:37:53.900Z,-3.76
2022-12-18T21:43:08.416Z,-3.77
2022-12-18T21:47:21.756Z,-3.73
2022-12-18T21:51:35.966Z,-3.85
2022-12-18T21:55:47.431Z,-3.87
2022-12-18T21:59:59.078Z,-3.85
2022-12-18T22:04:10.822Z,-3.85
2022-12-18T22:08:22.344Z,-3.75
2022-12-18T22:12:41.623Z,-3.76
2022-12-18T22:16:57.320Z,-3.75
2022-12-18T22:21:29.764Z,-3.75
2022-12-18T22:25:41.326Z,-3.73
